Time;durP1;ratioP1;P1;durP2;ratioP2;P2;SDS_P1;SDS_P2;PMS_P1;PMS_P2;Temp;Humidity;BMP_temperature;BMP_pressure;BME280_temperature;BME280_humidity;BME280_pressure;Samples;Min_cycle;Max_cycle;Signal;HPM_P1;HPM_P2
2022/01/19 00:01:46;;;;;;;47.13;23.70;;;;;;;4.69;100.00;103167.13;10032629;28;20044;-66
2022/01/19 00:06:42;;;;;;;48.47;24.05;;;;;;;4.74;100.00;103146.47;10025861;28;20134;-66
2022/01/19 00:11:39;;;;;;;45.15;22.08;;;;;;;4.85;100.00;103129.50;10014418;29;20103;-66
2022/01/19 00:16:36;;;;;;;45.08;24.13;;;;;;;4.92;100.00;103131.31;10024167;28;20055;-66
2022/01/19 00:21:33;;;;;;;53.35;28.30;;;;;;;4.76;100.00;103149.81;10025311;29;20048;-63
2022/01/19 00:26:29;;;;;;;51.72;29.02;;;;;;;4.83;100.00;103138.91;10032788;28;20076;-66
2022/01/19 00:31:26;;;;;;;47.70;23.90;;;;;;;4.71;100.00;103146.94;10033815;29;20051;-65
2022/01/19 00:36:22;;;;;;;53.22;28.25;;;;;;;4.64;100.00;103135.28;10029806;28;20044;-66
2022/01/19 00:41:19;;;;;;;54.45;28.77;;;;;;;4.49;100.00;103126.63;10039463;29;20390;-66
2022/01/19 00:46:16;;;;;;;54.50;29.30;;;;;;;4.43;100.00;103110.22;10051278;29;20067;-65
2022/01/19 00:51:12;;;;;;;56.00;27.55;;;;;;;4.38;100.00;103115.44;10067432;28;20074;-62
2022/01/19 00:56:09;;;;;;;57.83;28.35;;;;;;;4.38;100.00;103103.75;10060312;28;20106;-62
2022/01/19 01:01:05;;;;;;;61.00;30.73;;;;;;;4.40;100.00;103107.91;10057557;28;20051;-67
2022/01/19 01:06:02;;;;;;;58.38;29.85;;;;;;;4.48;100.00;103114.13;10033416;28;20412;-63
2022/01/19 01:10:59;;;;;;;46.38;24.77;;;;;;;4.40;100.00;103102.50;10038970;28;20083;-65
2022/01/19 01:20:57;;;;;;;50.25;26.63;;;;;;;4.53;100.00;103084.53;10052711;28;20152;-65
2022/01/19 01:25:54;;;;;;;60.20;28.95;;;;;;;4.54;100.00;103059.91;10035762;28;20051;-65
2022/01/19 01:30:51;;;;;;;50.17;22.90;;;;;;;4.35;100.00;103055.47;10043325;29;20078;-65
2022/01/19 01:35:48;;;;;;;55.08;27.70;;;;;;;4.30;100.00;103042.56;10036068;28;20040;-65
2022/01/19 01:40:44;;;;;;;49.40;25.85;;;;;;;4.15;100.00;103031.19;10053896;28;20160;-65
2022/01/19 01:45:47;;;;;;;56.25;29.33;;;;;;;4.24;100.00;103015.53;10041102;28;20044;-64
2022/01/19 01:56:08;;;;;;;50.03;27.77;;;;;;;4.29;100.00;102959.66;10052206;28;20085;-66
2022/01/19 02:01:05;;;;;;;47.92;22.95;;;;;;;4.23;100.00;102957.84;10065584;28;20078;-65
2022/01/19 02:16:20;;;;;;;47.72;24.25;;;;;;;4.07;100.00;102936.72;10036243;28;20048;-63
2022/01/19 02:42:13;;;;;;;51.20;27.52;;;;;;;4.22;100.00;102842.44;10044053;29;20075;-63
2022/01/19 02:52:20;;;;;;;42.00;22.35;;;;;;;4.27;100.00;102812.81;10055676;29;20047;-66
2022/01/19 02:57:20;;;;;;;41.15;20.00;;;;;;;4.14;100.00;102815.66;10035276;28;20111;-65
2022/01/19 03:12:47;;;;;;;42.10;19.58;;;;;;;3.93;100.00;102771.69;10012141;29;20075;-64
2022/01/19 03:17:43;;;;;;;38.53;17.65;;;;;;;4.06;100.00;102767.19;10042586;28;20129;-64
2022/01/19 03:22:49;;;;;;;37.90;17.65;;;;;;;3.99;100.00;102754.59;10034568;29;20073;-66
2022/01/19 03:27:47;;;;;;;35.25;16.65;;;;;;;3.91;100.00;102733.22;10034405;28;20044;-65
2022/01/19 03:32:44;;;;;;;38.17;16.05;;;;;;;3.93;100.00;102722.16;10056479;29;20528;-65
2022/01/19 03:37:41;;;;;;;33.38;15.90;;;;;;;3.85;100.00;102736.78;10049575;29;20043;-65
2022/01/19 03:42:37;;;;;;;34.47;16.33;;;;;;;3.85;100.00;102723.25;10063911;28;20403;-66
2022/01/19 03:47:41;;;;;;;37.15;17.40;;;;;;;3.85;100.00;102719.75;10045246;28;20082;-64
2022/01/19 03:52:37;;;;;;;39.53;17.38;;;;;;;3.92;100.00;102710.53;10057112;28;20075;-63
2022/01/19 03:57:34;;;;;;;41.97;17.63;;;;;;;3.86;100.00;102700.56;10040810;28;20039;-68
2022/01/19 04:02:30;;;;;;;33.67;17.30;;;;;;;3.89;100.00;102689.28;10059730;28;20075;-68
2022/01/19 04:07:27;;;;;;;33.88;16.85;;;;;;;3.87;100.00;102672.44;10039073;28;20069;-67
2022/01/19 04:12:42;;;;;;;38.95;18.38;;;;;;;4.00;100.00;102666.91;10044563;29;20050;-66
2022/01/19 04:17:45;;;;;;;36.65;15.88;;;;;;;4.08;100.00;102654.09;10035891;28;20035;-67
2022/01/19 04:22:41;;;;;;;35.30;17.38;;;;;;;4.08;100.00;102656.81;10043707;29;20124;-64
2022/01/19 04:27:38;;;;;;;33.92;16.20;;;;;;;4.16;100.00;102656.53;10030505;28;20099;-64
2022/01/19 04:37:45;;;;;;;44.83;18.73;;;;;;;3.98;100.00;102628.41;10033662;28;20107;-63
2022/01/19 05:03:57;;;;;;;34.60;17.00;;;;;;;3.96;100.00;102608.84;10003669;29;20625;-69
2022/01/19 05:09:04;;;;;;;35.43;15.97;;;;;;;4.14;100.00;102615.31;10031914;28;20065;-68
2022/01/19 05:14:00;;;;;;;29.65;14.98;;;;;;;4.05;100.00;102589.59;10010363;29;20073;-67
2022/01/19 05:18:57;;;;;;;32.60;15.68;;;;;;;4.03;100.00;102586.31;10022125;29;20134;-67
2022/01/19 05:23:53;;;;;;;30.70;15.52;;;;;;;4.02;100.00;102573.84;10018771;29;20104;-67
2022/01/19 05:28:50;;;;;;;30.13;14.35;;;;;;;3.97;100.00;102571.81;10015172;29;20044;-69
2022/01/19 05:33:47;;;;;;;37.33;15.00;;;;;;;3.94;100.00;102561.41;10022203;29;20102;-66
2022/01/19 05:38:43;;;;;;;36.25;16.30;;;;;;;3.85;100.00;102544.66;10041496;29;20047;-68
2022/01/19 05:43:41;;;;;;;25.13;13.65;;;;;;;3.94;100.00;102535.16;10036911;29;20047;-67
2022/01/19 05:48:38;;;;;;;30.20;14.98;;;;;;;3.76;100.00;102522.53;10021726;28;20052;-67
2022/01/19 05:53:35;;;;;;;32.22;15.35;;;;;;;3.90;100.00;102512.34;10075889;28;20538;-67
2022/01/19 05:58:31;;;;;;;22.92;12.13;;;;;;;3.92;100.00;102510.25;10017671;29;20111;-68
2022/01/19 06:03:28;;;;;;;32.55;13.93;;;;;;;3.63;100.00;102501.03;10024829;29;20525;-69
2022/01/19 06:13:23;;;;;;;32.38;14.00;;;;;;;3.73;100.00;102484.25;10016916;29;20131;-68
2022/01/19 06:18:21;;;;;;;31.65;14.48;;;;;;;3.77;100.00;102474.63;10034794;29;20126;-68
2022/01/19 06:23:17;;;;;;;36.15;16.00;;;;;;;3.85;100.00;102476.19;10023678;29;20047;-68
2022/01/19 06:28:14;;;;;;;50.53;17.73;;;;;;;3.78;100.00;102466.31;10019121;29;20043;-68
2022/01/19 06:33:10;;;;;;;50.72;22.40;;;;;;;3.59;100.00;102462.78;10048022;28;20078;-68
2022/01/19 06:38:08;;;;;;;53.45;24.13;;;;;;;3.75;100.00;102463.22;10042173;28;20418;-68
2022/01/19 06:43:05;;;;;;;55.95;24.00;;;;;;;3.88;100.00;102444.09;10026138;29;20056;-68
2022/01/19 06:48:02;;;;;;;62.70;25.05;;;;;;;3.94;100.00;102437.75;10040799;28;20069;-68
2022/01/19 06:52:58;;;;;;;63.78;26.70;;;;;;;3.99;100.00;102439.75;10066997;28;20121;-68
2022/01/19 06:57:54;;;;;;;59.83;26.80;;;;;;;4.08;100.00;102442.97;10039543;28;20561;-68
2022/01/19 07:02:53;;;;;;;53.60;24.27;;;;;;;4.10;100.00;102430.03;10060231;28;20079;-67
2022/01/19 07:07:52;;;;;;;51.50;23.20;;;;;;;4.06;100.00;102434.25;10033414;28;20079;-68
2022/01/19 07:12:49;;;;;;;55.55;24.95;;;;;;;4.02;100.00;102430.38;10050287;28;20098;-66
2022/01/19 07:17:45;;;;;;;57.45;25.60;;;;;;;4.15;100.00;102419.31;10041095;28;20048;-67
2022/01/19 07:22:42;;;;;;;62.13;24.70;;;;;;;4.18;100.00;102394.50;10034016;29;20110;-67
2022/01/19 07:27:38;;;;;;;55.22;25.08;;;;;;;4.18;100.00;102389.91;10009030;29;20440;-68
2022/01/19 07:32:35;;;;;;;61.95;23.98;;;;;;;4.07;100.00;102398.00;10022678;28;20107;-68
2022/01/19 07:37:32;;;;;;;50.03;23.80;;;;;;;4.09;100.00;102393.19;10032169;28;20095;-67
2022/01/19 07:42:29;;;;;;;55.47;24.88;;;;;;;4.03;100.00;102378.69;10021961;28;20080;-69
2022/01/19 07:47:28;;;;;;;53.67;24.05;;;;;;;4.02;100.00;102373.53;10030757;28;20071;-69
2022/01/19 07:52:26;;;;;;;64.63;26.25;;;;;;;4.01;100.00;102345.63;10045632;29;20079;-69
2022/01/19 07:57:22;;;;;;;59.80;27.00;;;;;;;3.98;100.00;102333.38;10032958;28;20118;-69
2022/01/19 08:02:19;;;;;;;56.65;24.83;;;;;;;4.06;100.00;102334.09;10012929;29;20482;-69
2022/01/19 08:07:15;;;;;;;59.83;26.42;;;;;;;4.07;100.00;102327.63;10030798;28;20055;-69
2022/01/19 08:12:12;;;;;;;59.95;26.48;;;;;;;4.02;100.00;102314.00;10048991;28;20081;-69
2022/01/19 08:17:08;;;;;;;51.88;26.90;;;;;;;4.16;100.00;102315.41;10041105;28;20082;-72
2022/01/19 08:22:05;;;;;;;61.28;28.02;;;;;;;4.09;100.00;102315.50;10046562;29;20051;-68
2022/01/19 08:27:02;;;;;;;63.83;27.98;;;;;;;4.00;100.00;102304.19;10047454;28;20082;-68
2022/01/19 08:31:58;;;;;;;46.25;20.30;;;;;;;3.80;100.00;102323.47;10035169;28;20083;-69
2022/01/19 08:37:15;;;;;;;59.17;24.33;;;;;;;3.81;100.00;102297.25;10032838;28;20745;-69
2022/01/19 08:42:13;;;;;;;62.92;28.52;;;;;;;3.89;100.00;102275.25;10056698;28;20091;-69
2022/01/19 08:47:09;;;;;;;56.67;24.77;;;;;;;3.82;100.00;102271.84;10015565;29;20075;-69
2022/01/19 08:52:21;;;;;;;62.13;28.30;;;;;;;3.83;100.00;102257.25;10004679;29;20491;-69
2022/01/19 08:57:19;;;;;;;57.95;27.80;;;;;;;3.79;100.00;102256.09;10018434;29;20052;-69
2022/01/19 09:02:15;;;;;;;62.70;27.95;;;;;;;3.73;100.00;102240.78;10017066;29;20138;-69
2022/01/19 09:07:12;;;;;;;52.25;22.95;;;;;;;3.71;100.00;102215.84;10016866;29;20418;-68
2022/01/19 09:12:09;;;;;;;62.55;28.50;;;;;;;3.79;100.00;102212.78;10033229;29;20047;-69
2022/01/19 09:17:07;;;;;;;60.50;27.05;;;;;;;3.94;100.00;102205.00;10030760;28;20089;-69
2022/01/19 09:22:06;;;;;;;63.55;28.75;;;;;;;3.83;100.00;102197.75;10058721;28;20123;-70
2022/01/19 09:27:04;;;;;;;48.88;21.48;;;;;;;3.82;100.00;102190.66;10036645;29;20054;-69
2022/01/19 09:32:01;;;;;;;56.78;26.40;;;;;;;3.87;100.00;102185.34;10020307;28;20099;-68
2022/01/19 09:36:57;;;;;;;54.20;27.15;;;;;;;3.94;100.00;102172.53;10033370;28;20110;-70
2022/01/19 09:41:55;;;;;;;52.83;26.70;;;;;;;3.80;100.00;102166.53;10054457;28;20138;-70
2022/01/19 09:46:52;;;;;;;68.38;27.08;;;;;;;3.93;100.00;102168.19;10036380;29;20561;-70
2022/01/19 09:51:50;;;;;;;59.92;27.90;;;;;;;3.93;100.00;102154.66;10020040;29;20052;-70
2022/01/19 09:56:50;;;;;;;65.13;30.52;;;;;;;3.93;100.00;102149.25;10035797;28;20095;-69
2022/01/19 10:01:58;;;;;;;58.47;25.20;;;;;;;4.08;100.00;102134.38;10029809;28;20079;-69
2022/01/19 10:07:20;;;;;;;57.20;28.17;;;;;;;4.07;100.00;102121.91;10027716;29;20082;-69
2022/01/19 10:18:16;;;;;;;65.35;29.92;;;;;;;4.20;100.00;102110.78;10036483;29;20079;-69
2022/01/19 10:23:36;;;;;;;62.25;27.27;;;;;;;4.16;100.00;102096.13;10054818;28;20043;-69
2022/01/19 10:29:03;;;;;;;59.05;28.40;;;;;;;4.16;100.00;102077.16;10031394;28;20098;-69
2022/01/19 10:34:09;;;;;;;61.00;27.30;;;;;;;4.25;100.00;102075.72;10012991;28;20126;-69
2022/01/19 10:39:05;;;;;;;54.60;25.27;;;;;;;4.17;100.00;102067.97;10027346;28;20071;-69
2022/01/19 10:44:02;;;;;;;57.83;24.63;;;;;;;4.11;100.00;102048.13;10017951;29;20044;-70
2022/01/19 10:49:02;;;;;;;59.92;27.02;;;;;;;4.08;100.00;102053.19;10015822;29;20572;-70
2022/01/19 10:54:19;;;;;;;53.97;26.75;;;;;;;4.25;100.00;102037.81;10017290;29;20048;-69
2022/01/19 10:59:18;;;;;;;55.45;27.67;;;;;;;4.21;100.00;102033.94;10011421;29;20051;-69
2022/01/19 11:04:35;;;;;;;52.88;27.27;;;;;;;4.26;100.00;102023.19;10013084;29;20423;-69
2022/01/19 11:09:34;;;;;;;57.28;26.35;;;;;;;4.15;100.00;101994.31;10007426;29;20136;-70
2022/01/19 11:14:36;;;;;;;58.80;27.42;;;;;;;4.06;100.00;101990.34;10022647;29;20516;-69
2022/01/19 11:19:52;;;;;;;60.40;28.17;;;;;;;3.99;100.00;101966.97;10044830;29;20061;-69
2022/01/19 11:25:00;;;;;;;56.28;27.67;;;;;;;3.77;100.00;101976.84;10057326;28;20119;-69
2022/01/19 11:30:27;;;;;;;63.25;28.48;;;;;;;3.96;100.00;101959.31;10033200;29;20524;-69
2022/01/19 11:35:37;;;;;;;55.47;27.27;;;;;;;3.86;100.00;101951.03;9997615;29;20089;-69
2022/01/19 11:40:35;;;;;;;57.00;29.00;;;;;;;3.74;100.00;101939.44;10023577;29;20755;-69
2022/01/19 11:45:37;;;;;;;58.60;29.00;;;;;;;3.56;100.00;101916.94;10012045;29;20489;-70
2022/01/19 11:50:34;;;;;;;42.75;21.00;;;;;;;3.75;100.00;101909.44;10014072;29;20055;-70
2022/01/19 11:55:33;;;;;;;59.22;27.92;;;;;;;3.59;100.00;101893.97;10007211;29;20044;-69
2022/01/19 12:00:32;;;;;;;56.17;27.23;;;;;;;3.63;100.00;101880.81;10020224;29;20083;-69
2022/01/19 12:05:40;;;;;;;54.85;26.58;;;;;;;3.63;100.00;101851.06;10019010;29;20122;-70
2022/01/19 12:10:44;;;;;;;54.10;25.83;;;;;;;3.61;100.00;101847.78;10012755;29;20573;-71
2022/01/19 12:15:57;;;;;;;50.93;25.60;;;;;;;3.55;100.00;101839.56;10012542;28;20123;-72
2022/01/19 12:20:53;;;;;;;58.65;28.48;;;;;;;3.51;100.00;101811.38;10017188;29;20043;-71
2022/01/19 12:25:59;;;;;;;59.33;30.00;;;;;;;3.35;100.00;101817.56;10009695;29;20135;-71
2022/01/19 12:30:56;;;;;;;64.90;30.38;;;;;;;3.59;100.00;101796.63;10011574;29;20067;-71
2022/01/19 12:35:53;;;;;;;55.03;27.48;;;;;;;3.54;100.00;101783.84;10014376;28;20072;-71
2022/01/19 12:40:56;;;;;;;53.08;27.02;;;;;;;3.59;100.00;101786.63;10014666;29;20466;-71
2022/01/19 12:45:54;;;;;;;55.72;29.88;;;;;;;3.58;100.00;101763.34;10010435;29;20044;-71
2022/01/19 12:50:51;;;;;;;47.97;27.50;;;;;;;3.63;100.00;101753.69;10016177;29;20080;-71
2022/01/19 12:55:51;;;;;;;51.03;27.08;;;;;;;3.65;100.00;101746.16;10014034;29;20059;-70
2022/01/19 13:00:51;;;;;;;50.85;28.15;;;;;;;3.69;100.00;101725.66;10017126;29;20102;-70
2022/01/19 13:05:51;;;;;;;46.47;28.20;;;;;;;3.77;100.00;101711.72;10023718;29;20584;-71
2022/01/19 13:10:51;;;;;;;48.38;26.83;;;;;;;3.67;100.00;101723.22;10030733;29;20079;-70
2022/01/19 13:15:56;;;;;;;51.95;28.70;;;;;;;3.62;100.00;101687.13;10022262;28;20055;-70
2022/01/19 13:20:56;;;;;;;47.30;25.23;;;;;;;3.64;100.00;101663.38;10013626;29;20467;-70
2022/01/19 13:26:10;;;;;;;45.33;23.73;;;;;;;3.64;100.00;101647.13;10014832;29;20071;-70
2022/01/19 13:31:22;;;;;;;43.75;26.25;;;;;;;3.77;100.00;101630.56;10017838;29;20074;-69
2022/01/19 13:36:25;;;;;;;52.30;28.10;;;;;;;3.73;100.00;101613.19;10014743;29;20530;-69
2022/01/19 13:41:23;;;;;;;49.97;28.60;;;;;;;3.62;100.00;101600.59;10011721;29;20063;-68
2022/01/19 13:46:26;;;;;;;47.83;28.02;;;;;;;3.70;100.00;101592.06;10013059;29;20044;-68
2022/01/19 13:51:24;;;;;;;51.83;23.95;;;;;;;3.72;100.00;101563.69;10019143;29;20483;-68
2022/01/19 13:56:35;;;;;;;45.38;26.13;;;;;;;3.73;100.00;101553.69;10013122;28;20048;-69
2022/01/19 14:01:40;;;;;;;46.83;27.10;;;;;;;3.86;100.00;101553.31;10019415;28;20047;-68
2022/01/19 14:06:43;;;;;;;52.03;26.77;;;;;;;3.88;100.00;101534.94;10019275;29;20494;-68
2022/01/19 14:11:57;;;;;;;55.55;28.13;;;;;;;3.91;100.00;101512.78;10029125;28;20631;-67
2022/01/19 14:16:56;;;;;;;53.45;29.63;;;;;;;3.97;100.00;101497.44;10011149;28;20517;-68
2022/01/19 14:22:11;;;;;;;55.33;28.35;;;;;;;3.88;100.00;101494.38;10015574;28;20043;-68
2022/01/19 14:27:31;;;;;;;53.28;28.60;;;;;;;3.87;100.00;101484.59;10027239;28;20708;-68
2022/01/19 14:32:44;;;;;;;54.78;29.10;;;;;;;3.80;100.00;101483.97;10017278;28;20588;-67
2022/01/19 14:38:11;;;;;;;54.47;27.42;;;;;;;3.90;100.00;101454.34;10011418;29;20043;-67
2022/01/19 14:43:15;;;;;;;50.97;28.15;;;;;;;3.95;100.00;101438.16;10017647;28;20048;-68
2022/01/19 14:48:15;;;;;;;53.63;28.67;;;;;;;3.95;100.00;101427.34;10015717;28;20043;-68
2022/01/19 14:53:23;;;;;;;56.47;29.48;;;;;;;3.98;100.00;101412.47;10007613;28;20040;-69
2022/01/19 14:58:25;;;;;;;48.63;28.20;;;;;;;4.10;100.00;101390.66;10012454;29;20063;-69
2022/01/19 15:03:30;;;;;;;55.57;28.40;;;;;;;4.11;100.00;101381.47;10006367;29;20143;-68
2022/01/19 15:08:32;;;;;;;54.80;28.98;;;;;;;4.08;100.00;101376.56;10005417;29;20140;-68
2022/01/19 15:13:40;;;;;;;54.80;27.67;;;;;;;3.95;100.00;101383.22;10008894;29;20071;-70
2022/01/19 15:18:40;;;;;;;56.20;30.88;;;;;;;4.03;100.00;101373.81;10023114;29;20047;-68
2022/01/19 15:23:49;;;;;;;57.50;31.55;;;;;;;4.07;100.00;101359.50;10023142;29;20044;-68
2022/01/19 15:28:53;;;;;;;64.60;31.37;;;;;;;4.00;100.00;101365.13;10036557;28;20130;-68
2022/01/19 15:34:05;;;;;;;60.80;31.63;;;;;;;3.91;100.00;101372.09;10019739;29;20062;-68
2022/01/19 15:39:07;;;;;;;60.92;31.15;;;;;;;3.88;100.00;101361.78;10028959;28;20074;-69
2022/01/19 15:44:07;;;;;;;52.50;25.67;;;;;;;3.79;100.00;101355.22;10006610;29;20114;-69
2022/01/19 15:49:12;;;;;;;68.32;34.33;;;;;;;3.68;100.00;101367.81;10026133;28;20491;-68
2022/01/19 15:54:20;;;;;;;73.50;33.58;;;;;;;3.58;100.00;101371.25;10019923;29;20044;-68
2022/01/19 15:59:18;;;;;;;67.43;32.83;;;;;;;3.50;100.00;101352.75;10016671;28;20110;-68
2022/01/19 16:04:17;;;;;;;82.03;35.97;;;;;;;3.53;100.00;101357.69;10044556;28;20047;-67
2022/01/19 16:09:15;;;;;;;58.75;28.20;;;;;;;3.42;100.00;101331.59;10005168;29;20063;-68
2022/01/19 16:14:15;;;;;;;71.93;35.90;;;;;;;3.39;100.00;101326.72;10017660;28;20110;-68
2022/01/19 16:19:14;;;;;;;64.57;31.90;;;;;;;3.41;100.00;101319.13;10002685;29;20139;-69
2022/01/19 16:29:32;;;;;;;68.45;30.20;;;;;;;3.40;100.00;101327.53;10038631;28;20047;-68
2022/01/19 16:34:38;;;;;;;72.13;34.58;;;;;;;3.40;100.00;101306.72;10055323;28;20100;-67
2022/01/19 16:39:51;;;;;;;61.50;29.35;;;;;;;3.41;100.00;101294.81;10002118;28;20055;-68
2022/01/19 16:45:09;;;;;;;73.47;32.03;;;;;;;3.45;100.00;101300.53;10002497;28;20490;-68
2022/01/19 16:50:23;;;;;;;66.43;30.17;;;;;;;3.43;100.00;101268.34;10033583;28;20043;-68
2022/01/19 16:55:28;;;;;;;57.75;28.27;;;;;;;3.42;100.00;101261.31;10008308;28;20062;-69
2022/01/19 17:00:35;;;;;;;67.13;31.15;;;;;;;3.50;100.00;101252.72;10010151;29;20051;-69
2022/01/19 17:05:43;;;;;;;56.63;28.58;;;;;;;3.52;100.00;101245.16;10007397;29;21633;-69
2022/01/19 17:11:00;;;;;;;65.10;29.30;;;;;;;3.56;100.00;101240.06;10015582;23;20538;-67
2022/01/19 17:16:30;;;;;;;56.35;29.65;;;;;;;3.54;100.00;101232.22;10027893;28;20078;-67
2022/01/19 17:21:36;;;;;;;62.47;29.92;;;;;;;3.56;100.00;101235.47;9996306;29;20048;-67
2022/01/19 17:26:40;;;;;;;60.70;26.55;;;;;;;3.52;100.00;101228.94;10013811;29;20052;-68
2022/01/19 17:32:11;;;;;;;51.20;22.08;;;;;;;3.54;100.00;101221.41;10004966;29;20082;-68
2022/01/19 17:37:20;;;;;;;74.22;34.50;;;;;;;3.59;100.00;101207.91;10020039;29;20084;-68
2022/01/19 17:42:45;;;;;;;72.55;31.98;;;;;;;3.61;100.00;101187.94;10019424;29;20051;-68
2022/01/19 17:52:52;;;;;;;67.80;30.98;;;;;;;3.65;100.00;101162.00;10007884;29;20632;-68
2022/01/19 17:57:51;;;;;;;52.97;23.27;;;;;;;3.71;100.00;101155.53;10010518;29;20135;-66
2022/01/19 18:02:53;;;;;;;66.90;28.27;;;;;;;3.79;100.00;101136.13;10006347;29;20064;-66
2022/01/19 18:08:10;;;;;;;55.42;28.13;;;;;;;3.83;100.00;101126.41;10001487;29;20107;-67
2022/01/19 18:13:13;;;;;;;59.63;29.77;;;;;;;3.84;100.00;101122.63;9999247;29;20134;-67
2022/01/19 18:18:12;;;;;;;63.13;30.00;;;;;;;3.83;100.00;101142.63;10003336;29;20426;-70
2022/01/19 18:23:10;;;;;;;61.03;28.92;;;;;;;3.91;100.00;101127.78;10014803;29;20086;-70
2022/01/19 18:28:07;;;;;;;48.45;23.52;;;;;;;3.94;100.00;101133.47;10031147;29;20099;-70
2022/01/19 18:33:03;;;;;;;61.38;27.80;;;;;;;4.00;100.00;101121.63;10012290;29;20048;-69
2022/01/19 18:38:00;;;;;;;56.80;28.17;;;;;;;4.05;100.00;101118.13;10003371;29;20052;-70
2022/01/19 18:42:58;;;;;;;50.28;24.95;;;;;;;4.08;100.00;101105.94;9997803;29;20594;-70
2022/01/19 18:47:55;;;;;;;44.35;22.98;;;;;;;4.07;100.00;101123.28;10004000;29;20052;-70
2022/01/19 18:52:52;;;;;;;54.03;22.27;;;;;;;4.11;100.00;101132.50;10004057;29;20506;-70
2022/01/19 18:57:53;;;;;;;46.25;22.52;;;;;;;4.12;100.00;101134.13;10002061;29;20071;-70
2022/01/19 19:02:54;;;;;;;40.38;19.30;;;;;;;4.16;100.00;101129.81;10014743;29;20043;-70
2022/01/19 19:07:57;;;;;;;37.20;19.17;;;;;;;4.21;100.00;101137.94;10016868;29;20095;-70
2022/01/19 19:12:53;;;;;;;35.55;17.88;;;;;;;4.27;100.00;101147.72;10011244;29;20044;-71
2022/01/19 19:17:52;;;;;;;21.75;9.77;;;;;;;4.36;100.00;101162.38;10007395;29;20507;-70
2022/01/19 19:22:49;;;;;;;19.88;8.00;;;;;;;4.45;100.00;101165.34;9998969;29;20720;-70
2022/01/19 19:27:48;;;;;;;21.75;8.25;;;;;;;4.50;100.00;101172.69;10012199;29;20060;-71
2022/01/19 19:32:46;;;;;;;17.63;5.82;;;;;;;4.54;100.00;101168.38;9997687;29;20071;-72
2022/01/19 19:37:45;;;;;;;19.10;4.78;;;;;;;4.61;100.00;101163.50;10002546;29;20478;-70
2022/01/19 19:42:43;;;;;;;23.92;5.47;;;;;;;4.65;100.00;101164.63;10010191;29;20059;-71
2022/01/19 19:47:41;;;;;;;26.95;6.38;;;;;;;4.66;100.00;101171.66;10024473;29;20414;-70
2022/01/19 19:52:39;;;;;;;25.45;5.45;;;;;;;4.68;100.00;101188.44;9997630;29;20434;-71
2022/01/19 19:57:38;;;;;;;22.17;4.65;;;;;;;4.62;100.00;101184.13;10003058;29;20048;-71
2022/01/19 20:02:38;;;;;;;24.15;2.97;;;;;;;4.58;100.00;101193.84;10003842;29;20052;-70
2022/01/19 20:07:35;;;;;;;28.40;3.55;;;;;;;4.59;100.00;101176.50;10021013;29;20051;-71
2022/01/19 20:12:31;;;;;;;24.20;5.63;;;;;;;4.43;100.00;101191.88;10009569;29;20048;-70
2022/01/19 20:17:30;;;;;;;25.15;3.05;;;;;;;4.37;100.00;101187.53;9990769;29;20094;-70
2022/01/19 20:22:26;;;;;;;30.17;3.20;;;;;;;4.30;100.00;101198.63;9997856;29;20048;-71
2022/01/19 20:27:23;;;;;;;35.70;3.80;;;;;;;4.27;100.00;101206.44;10018080;29;20060;-67
2022/01/19 20:32:21;;;;;;;26.95;4.30;;;;;;;4.19;100.00;101210.47;9996563;29;20521;-68
2022/01/19 20:37:18;;;;;;;35.88;5.32;;;;;;;4.10;100.00;101222.88;9997731;29;20684;-68
2022/01/19 20:42:14;;;;;;;30.73;4.68;;;;;;;4.08;100.00;101230.44;10010278;29;20422;-67
2022/01/19 20:47:12;;;;;;;26.90;3.58;;;;;;;4.02;100.00;101224.19;10009135;29;20051;-68
2022/01/19 20:52:09;;;;;;;32.83;4.03;;;;;;;3.99;100.00;101221.97;10003703;29;20075;-67
2022/01/19 20:57:05;;;;;;;30.42;4.10;;;;;;;3.88;100.00;101236.53;10024947;29;20134;-68
2022/01/19 21:02:03;;;;;;;36.60;5.43;;;;;;;3.85;100.00;101237.84;10041259;29;20052;-68
2022/01/19 21:07:02;;;;;;;36.22;4.63;;;;;;;3.80;100.00;101237.81;9999088;29;20039;-67
2022/01/19 21:11:59;;;;;;;22.00;3.85;;;;;;;3.69;100.00;101222.59;10015938;29;20745;-68
2022/01/19 21:16:57;;;;;;;20.77;2.92;;;;;;;3.69;100.00;101239.66;10013973;29;20082;-67
2022/01/19 21:21:54;;;;;;;27.90;3.83;;;;;;;3.72;100.00;101254.53;10005750;29;20051;-64
2022/01/19 21:26:50;;;;;;;28.85;3.50;;;;;;;3.75;100.00;101248.59;10016727;29;20051;-65
2022/01/19 21:31:47;;;;;;;31.02;4.30;;;;;;;3.69;100.00;101255.88;10005456;29;20052;-65
2022/01/19 21:36:47;;;;;;;28.58;5.25;;;;;;;3.74;100.00;101266.72;10028300;29;20505;-65
2022/01/19 21:41:43;;;;;;;21.40;4.30;;;;;;;3.83;100.00;101271.66;10004153;29;20086;-65
2022/01/19 21:46:40;;;;;;;19.83;3.70;;;;;;;3.85;100.00;101273.00;10017852;29;20090;-65
2022/01/19 21:51:36;;;;;;;12.45;1.50;;;;;;;3.81;100.00;101285.44;10004275;29;20537;-65
2022/01/19 21:56:33;;;;;;;17.17;1.85;;;;;;;3.83;100.00;101326.59;10018784;29;20143;-67
2022/01/19 22:01:30;;;;;;;10.23;2.03;;;;;;;3.76;100.00;101315.13;10005574;29;20098;-66
2022/01/19 22:06:26;;;;;;;19.38;2.80;;;;;;;3.79;100.00;101318.16;10012384;29;20147;-66
2022/01/19 22:11:24;;;;;;;19.20;3.30;;;;;;;3.82;100.00;101314.13;10006965;29;20083;-66
2022/01/19 22:16:24;;;;;;;20.38;3.53;;;;;;;3.80;100.00;101321.66;10027429;29;20139;-67
2022/01/19 22:21:21;;;;;;;22.40;3.25;;;;;;;3.72;100.00;101335.69;10036202;29;20519;-71
2022/01/19 22:26:17;;;;;;;17.45;2.80;;;;;;;3.70;100.00;101349.44;10030228;29;20502;-70
2022/01/19 22:31:14;;;;;;;14.70;2.53;;;;;;;3.61;100.00;101356.38;10016189;29;20059;-71
2022/01/19 22:36:10;;;;;;;18.35;2.40;;;;;;;3.50;100.00;101382.50;10025556;29;20434;-67
2022/01/19 22:41:07;;;;;;;16.60;2.10;;;;;;;3.52;100.00;101374.97;10028556;29;20507;-68
2022/01/19 22:46:05;;;;;;;16.27;1.90;;;;;;;3.47;100.00;101384.91;10008743;29;20500;-70
2022/01/19 22:51:01;;;;;;;19.90;2.67;;;;;;;3.46;100.00;101392.22;10000469;29;20067;-70
2022/01/19 22:55:58;;;;;;;16.38;2.92;;;;;;;3.34;100.00;101389.66;10010231;29;20078;-69
2022/01/19 23:00:54;;;;;;;12.90;2.20;;;;;;;3.38;100.00;101401.56;10007537;29;20506;-69
2022/01/19 23:05:51;;;;;;;15.35;1.90;;;;;;;3.16;100.00;101393.47;10002183;29;20044;-69
2022/01/19 23:10:48;;;;;;;17.90;2.45;;;;;;;3.01;100.00;101401.38;10034450;29;20055;-70
2022/01/19 23:15:45;;;;;;;15.18;1.80;;;;;;;2.91;100.00;101395.84;10010782;29;20102;-68
2022/01/19 23:20:42;;;;;;;11.07;1.83;;;;;;;2.89;100.00;101387.19;10026503;29;20071;-66
2022/01/19 23:25:39;;;;;;;16.02;2.15;;;;;;;2.79;100.00;101377.06;10016988;29;20059;-67
2022/01/19 23:30:39;;;;;;;12.82;1.75;;;;;;;2.70;100.00;101383.97;10000404;29;20076;-70
2022/01/19 23:35:37;;;;;;;14.95;2.05;;;;;;;2.66;100.00;101370.13;10010748;29;20077;-68
2022/01/19 23:51:10;;;;;;;7.28;1.48;;;;;;;2.48;100.00;101351.50;9999503;29;20040;-64
2022/01/19 23:56:09;;;;;;;17.08;2.75;;;;;;;2.41;100.00;101348.16;10014059;29;20083;-63
